createdAt,value
2023-04-27T00:03:57.477Z,67.24
2023-04-27T00:08:59.587Z,67.45
2023-04-27T00:14:01.202Z,67.59
2023-04-27T00:19:02.800Z,67.50
2023-04-27T00:24:04.508Z,67.80
2023-04-27T00:29:06.040Z,68.33
2023-04-27T00:34:07.683Z,68.33
2023-04-27T00:39:09.281Z,68.44
2023-04-27T00:44:11.038Z,68.77
2023-04-27T00:49:12.735Z,68.68
2023-04-27T00:54:20.342Z,69.06
2023-04-27T00:59:22.227Z,69.66
2023-04-27T01:04:24.024Z,69.56
2023-04-27T01:09:26.322Z,70.28
2023-04-27T01:14:27.942Z,70.21
2023-04-27T01:19:29.509Z,70.72
2023-04-27T01:24:31.137Z,70.90
2023-04-27T01:29:32.981Z,70.69
2023-04-27T01:34:34.541Z,70.53
2023-04-27T01:39:36.197Z,70.72
2023-04-27T01:44:38.200Z,70.66
2023-04-27T01:49:39.792Z,70.61
2023-04-27T01:54:41.374Z,70.54
2023-04-27T01:59:42.979Z,70.42
2023-04-27T02:04:45.253Z,70.53
2023-04-27T02:09:47.192Z,70.78
2023-04-27T02:14:48.996Z,70.70
2023-04-27T02:19:50.572Z,70.72
2023-04-27T02:24:52.116Z,70.80
2023-04-27T02:29:55.706Z,70.39
2023-04-27T02:34:57.993Z,70.98
2023-04-27T02:40:02.102Z,70.40
2023-04-27T02:45:07.612Z,70.17
2023-04-27T02:50:09.787Z,70.78
2023-04-27T02:55:11.699Z,70.73
2023-04-27T03:00:13.689Z,70.57
2023-04-27T03:05:15.929Z,70.83
2023-04-27T03:10:17.524Z,71.13
2023-04-27T03:15:19.084Z,70.64
2023-04-27T03:20:22.025Z,71.02
2023-04-27T03:25:23.744Z,71.26
2023-04-27T03:30:25.312Z,71.10
2023-04-27T03:35:27.514Z,71.66
2023-04-27T03:40:29.074Z,71.60
2023-04-27T03:45:31.171Z,71.56
2023-04-27T03:50:33.218Z,71.46
2023-04-27T03:55:41.342Z,71.21
2023-04-27T04:00:43.761Z,70.71
2023-04-27T04:05:47.167Z,70.14
2023-04-27T04:10:49.058Z,70.03
2023-04-27T04:15:50.754Z,69.08
2023-04-27T04:20:52.407Z,69.72
2023-04-27T04:25:56.565Z,69.71
2023-04-27T04:31:01.601Z,69.54
2023-04-27T04:36:04.421Z,69.51
2023-04-27T04:41:07.241Z,69.75
2023-04-27T04:46:09.171Z,69.08
2023-04-27T04:51:10.783Z,68.94
2023-04-27T04:56:13.308Z,68.40
2023-04-27T05:01:14.878Z,68.15
2023-04-27T05:06:16.758Z,68.02
2023-04-27T05:11:18.366Z,67.10
2023-04-27T05:16:20.064Z,67.54
2023-04-27T05:21:22.194Z,67.64
2023-04-27T05:26:23.736Z,68.29
2023-04-27T05:31:25.437Z,68.33
2023-04-27T05:36:28.512Z,67.35
2023-04-27T05:41:30.513Z,67.07
2023-04-27T05:46:32.629Z,66.53
2023-04-27T05:51:34.405Z,66.04
2023-04-27T05:56:37.765Z,65.50
2023-04-27T06:01:39.478Z,65.36
2023-04-27T06:06:41.064Z,64.45
2023-04-27T06:11:42.665Z,64.18
2023-04-27T06:16:44.272Z,64.73
2023-04-27T06:21:46.395Z,64.39
2023-04-27T06:26:49.552Z,64.05
2023-04-27T06:31:51.329Z,63.81
2023-04-27T06:36:52.928Z,63.00
2023-04-27T06:41:54.582Z,62.63
2023-04-27T06:46:56.298Z,62.70
2023-04-27T06:51:57.929Z,62.21
2023-04-27T06:56:59.482Z,61.86
2023-04-27T07:02:01.324Z,61.85
2023-04-27T07:07:02.903Z,61.23
2023-04-27T07:12:04.586Z,60.48
2023-04-27T07:17:06.140Z,60.86
2023-04-27T07:22:07.686Z,60.37
2023-04-27T07:27:10.200Z,60.30
2023-04-27T07:32:11.793Z,59.53
2023-04-27T07:37:15.920Z,59.43
2023-04-27T07:42:18.487Z,59.20
2023-04-27T07:47:20.197Z,59.38
2023-04-27T07:52:22.169Z,59.28
2023-04-27T07:57:23.913Z,57.23
2023-04-27T08:02:30.343Z,56.37
2023-04-27T08:07:36.089Z,54.97
2023-04-27T08:12:41.314Z,53.88
2023-04-27T08:17:43.678Z,53.90
2023-04-27T08:22:45.273Z,54.13
2023-04-27T08:27:46.826Z,53.28
2023-04-27T08:32:48.473Z,51.72
2023-04-27T08:37:50.107Z,51.74
2023-04-27T08:42:59.463Z,51.53
2023-04-27T08:48:01.431Z,51.87
2023-04-27T08:53:03.037Z,52.12
2023-04-27T08:58:04.579Z,52.63
2023-04-27T09:03:06.412Z,50.60
2023-04-27T09:08:09.098Z,50.52
2023-04-27T09:13:10.651Z,49.14
2023-04-27T09:18:21.811Z,48.60
2023-04-27T09:23:31.311Z,48.36
2023-04-27T09:28:34.155Z,47.18
2023-04-27T09:33:36.156Z,45.90
2023-04-27T09:38:37.755Z,45.92
2023-04-27T09:43:41.225Z,45.47
2023-04-27T09:48:42.898Z,45.23
2023-04-27T09:53:51.932Z,43.75
2023-04-27T09:59:07.593Z,43.60
2023-04-27T10:04:28.094Z,42.51
2023-04-27T10:09:46.429Z,42.13
2023-04-27T10:14:58.216Z,43.00
2023-04-27T10:20:01.767Z,42.53
2023-04-27T10:25:31.636Z,42.61
2023-04-27T10:30:39.794Z,43.08
2023-04-27T10:35:43.485Z,42.96
2023-04-27T10:40:46.813Z,41.71
2023-04-27T10:45:48.864Z,41.30
2023-04-27T10:50:53.786Z,41.05
2023-04-27T10:55:59.160Z,40.76
2023-04-27T11:01:00.866Z,39.48
2023-04-27T11:06:05.002Z,40.29
2023-04-27T11:11:06.721Z,40.98
2023-04-27T11:16:08.381Z,39.77
2023-04-27T11:21:12.605Z,39.76
2023-04-27T11:26:19.375Z,39.93
2023-04-27T11:31:21.081Z,39.81
2023-04-27T11:36:23.498Z,39.91
2023-04-27T11:41:33.600Z,40.45
2023-04-27T11:46:38.199Z,39.74
2023-04-27T11:51:40.138Z,39.81
2023-04-27T11:56:42.708Z,39.56
2023-04-27T12:01:44.339Z,40.37
2023-04-27T12:06:45.938Z,41.02
2023-04-27T12:11:47.529Z,40.20
2023-04-27T12:16:49.135Z,40.06
2023-04-27T12:21:50.989Z,40.11
2023-04-27T12:26:52.592Z,40.57
2023-04-27T12:31:54.569Z,40.18
2023-04-27T12:36:56.258Z,40.43
2023-04-27T12:41:58.548Z,39.72
2023-04-27T12:47:00.153Z,40.48
2023-04-27T12:52:01.802Z,40.84
2023-04-27T12:57:06.282Z,41.25
2023-04-27T13:02:08.246Z,40.11
2023-04-27T13:07:09.823Z,40.30
2023-04-27T13:12:11.460Z,41.04
2023-04-27T13:17:13.118Z,41.09
2023-04-27T13:22:14.725Z,41.03
2023-04-27T13:27:17.113Z,41.01
2023-04-27T13:32:18.745Z,40.85
2023-04-27T13:37:20.360Z,40.55
2023-04-27T13:42:23.997Z,40.61
2023-04-27T13:47:25.666Z,40.79
2023-04-27T13:52:27.244Z,41.50
2023-04-27T13:57:28.828Z,41.53
2023-04-27T14:02:30.664Z,40.89
2023-04-27T14:07:34.215Z,41.24
2023-04-27T14:12:35.925Z,41.22
2023-04-27T14:17:37.541Z,40.66
2023-04-27T14:22:39.659Z,41.89
2023-04-27T14:27:41.201Z,41.73
2023-04-27T14:32:42.862Z,42.28
2023-04-27T14:37:44.431Z,41.99
2023-04-27T14:42:46.935Z,42.41
2023-04-27T14:47:48.764Z,42.33
2023-04-27T14:52:50.383Z,41.88
2023-04-27T14:57:52.085Z,41.81
2023-04-27T15:02:54.985Z,42.28
2023-04-27T15:07:56.625Z,42.94
2023-04-27T15:12:58.197Z,42.99
2023-04-27T15:17:59.897Z,42.32
2023-04-27T15:23:01.527Z,42.15
2023-04-27T15:28:03.536Z,42.26
2023-04-27T15:33:05.171Z,42.80
2023-04-27T15:38:12.066Z,42.16
2023-04-27T15:43:14.958Z,42.74
2023-04-27T15:48:16.691Z,42.17
2023-04-27T15:53:18.306Z,42.50
2023-04-27T15:58:19.868Z,42.71
2023-04-27T16:03:21.569Z,42.84
2023-04-27T16:08:23.215Z,42.47
2023-04-27T16:13:24.996Z,42.71
2023-04-27T16:18:26.606Z,43.20
2023-04-27T16:23:28.165Z,43.13
2023-04-27T16:28:29.812Z,43.14
2023-04-27T16:33:31.825Z,43.51
2023-04-27T16:38:33.389Z,43.54
2023-04-27T16:43:35.114Z,43.27
2023-04-27T16:48:36.762Z,43.57
2023-04-27T16:53:38.315Z,44.06
2023-04-27T16:58:40.908Z,44.47
2023-04-27T17:03:42.856Z,43.67
2023-04-27T17:08:44.644Z,44.16
2023-04-27T17:13:47.022Z,43.97
2023-04-27T17:18:48.821Z,44.26
2023-04-27T17:23:52.079Z,43.94
2023-04-27T17:28:59.699Z,44.15
2023-04-27T17:34:02.522Z,44.62
2023-04-27T17:39:04.762Z,44.53
2023-04-27T17:44:06.422Z,44.26
2023-04-27T17:49:08.043Z,44.47
2023-04-27T17:54:10.085Z,44.81
2023-04-27T17:59:11.735Z,44.49
2023-04-27T18:04:13.449Z,45.07
2023-04-27T18:09:16.110Z,44.55
2023-04-27T18:14:17.865Z,45.07
2023-04-27T18:19:19.410Z,45.36
2023-04-27T18:24:21.002Z,45.31
2023-04-27T18:29:22.622Z,45.77
2023-04-27T18:34:24.226Z,46.45
2023-04-27T18:39:25.905Z,46.04
2023-04-27T18:44:27.456Z,46.50
2023-04-27T18:49:29.048Z,46.49
2023-04-27T18:54:30.766Z,46.99
2023-04-27T18:59:32.346Z,47.46
2023-04-27T19:04:34.353Z,47.61
2023-04-27T19:09:36.117Z,47.06
2023-04-27T19:14:37.686Z,48.01
2023-04-27T19:19:39.244Z,49.01
2023-04-27T19:24:40.826Z,48.68
2023-04-27T19:29:53.728Z,49.04
2023-04-27T19:34:56.489Z,48.84
2023-04-27T19:39:58.172Z,49.34
2023-04-27T19:45:01.026Z,49.45
2023-04-27T19:50:03.222Z,50.31
2023-04-27T19:55:05.139Z,50.53
2023-04-27T20:00:10.063Z,51.67
2023-04-27T20:05:14.808Z,52.64
2023-04-27T20:10:16.933Z,50.67
2023-04-27T20:15:18.637Z,51.29
2023-04-27T20:20:20.759Z,51.50
2023-04-27T20:25:22.896Z,52.22
2023-04-27T20:30:24.521Z,52.00
2023-04-27T20:35:27.620Z,53.10
2023-04-27T20:40:29.396Z,51.69
2023-04-27T20:45:31.335Z,52.63
2023-04-27T20:50:32.948Z,54.00
2023-04-27T20:55:35.011Z,56.58
2023-04-27T21:00:37.214Z,57.33
2023-04-27T21:05:39.017Z,56.65
2023-04-27T21:10:41.079Z,56.84
2023-04-27T21:15:42.999Z,57.27
2023-04-27T21:20:44.621Z,57.85
2023-04-27T21:25:46.862Z,58.85
2023-04-27T21:30:48.590Z,59.63
2023-04-27T21:35:50.423Z,59.71
2023-04-27T21:40:52.055Z,60.23
2023-04-27T21:45:53.628Z,60.45
2023-04-27T21:50:55.228Z,59.65
2023-04-27T21:55:57.139Z,60.37
2023-04-27T22:00:58.720Z,60.36
2023-04-27T22:06:00.366Z,60.64
2023-04-27T22:11:02.067Z,61.46
2023-04-27T22:16:03.785Z,61.94
2023-04-27T22:21:05.453Z,62.43
2023-04-27T22:26:08.892Z,61.59
2023-04-27T22:31:10.877Z,62.45
2023-04-27T22:36:12.481Z,62.73
2023-04-27T22:41:14.074Z,63.27
2023-04-27T22:46:15.892Z,63.67
2023-04-27T22:51:17.460Z,63.23
2023-04-27T22:56:19.093Z,63.66
2023-04-27T23:01:20.736Z,63.48
2023-04-27T23:06:22.349Z,63.74
2023-04-27T23:11:23.974Z,64.35
2023-04-27T23:16:25.848Z,64.60
2023-04-27T23:21:28.140Z,64.67
2023-04-27T23:26:29.678Z,64.67
2023-04-27T23:31:31.910Z,64.75
2023-04-27T23:36:33.528Z,65.26
2023-04-27T23:41:35.113Z,65.19
2023-04-27T23:46:36.777Z,65.96
2023-04-27T23:51:38.510Z,65.48
2023-04-27T23:56:40.066Z,65.66
